Terminal Aerodrome Forecast
Issued by NWS

Home | Current Version | Previous Version | Text Only | Print | Product List | Glossary On
Versions: 1 2 3 4 5 6 7 8 9 10 11 12 13 14 15 16 17 18 19 20 21 22 23 24 25 26 27 28 29 30 31 32 33 34 35 36 37 38 39 40 41 42 43 44 45 46 47 48 49 50
000
FTUS45 KBOU 180402 AAD
TAFBJC
TAF AMD
KBJC 180402Z 1804/1824 33008KT P6SM VCSH SCT030 BKN060
     FM180500 33008KT P6SM SCT010 BKN030 OVC090
      TEMPO 1805/1808 3SM -SNRA BR SCT015 BKN025
     FM180900 30008KT P6SM VCSH SCT030 BKN050
     FM181200 29006KT P6SM VCFG SCT010 SCT030
      TEMPO 1812/1815 1SM BR BKN010
     FM181600 29008KT P6SM VCSH SCT030 SCT080
     FM182000 31008KT P6SM VCSH SCT050 BKN110 PROB30 1821/1824 -SHRA
      BKN050=

USA.gov is the U.S. government's official web portal to all federal, state and local government web resources and services.